Time;durP1;ratioP1;P1;durP2;ratioP2;P2;SDS_P1;SDS_P2;PMS_P1;PMS_P2;Temp;Humidity;BMP_temperature;BMP_pressure;BME280_temperature;BME280_humidity;BME280_pressure;Samples;Min_cycle;Max_cycle;Signal;HPM_P1;HPM_P2
2022/03/25 00:04:13;;;;;;;63.63;30.37;;;;;;;2.24;64.68;101678.53;3683554;79;98905;-81
2022/03/25 00:09:14;;;;;;;63.77;29.60;;;;;;;2.21;65.17;101679.09;3689113;78;98773;-80
2022/03/25 00:14:16;;;;;;;58.03;29.43;;;;;;;2.16;64.81;101682.70;3657075;80;99088;-80
2022/03/25 00:19:17;;;;;;;70.03;32.83;;;;;;;2.10;65.31;101673.53;3671036;77;98730;-80
2022/03/25 00:24:18;;;;;;;66.20;30.77;;;;;;;2.03;65.47;101670.38;3655466;79;98984;-81
2022/03/25 00:29:19;;;;;;;63.03;31.83;;;;;;;1.92;65.53;101665.59;3669644;77;98736;-81
2022/03/25 00:34:20;;;;;;;58.47;30.03;;;;;;;1.77;66.30;101644.62;3669299;78;98826;-80
2022/03/25 00:39:21;;;;;;;64.33;29.43;;;;;;;1.79;65.91;101660.87;3684431;78;98818;-81
2022/03/25 00:44:23;;;;;;;77.33;34.13;;;;;;;1.72;66.02;101664.49;3670458;78;98951;-80
2022/03/25 00:49:25;;;;;;;71.53;30.83;;;;;;;1.66;66.44;101656.15;3681045;78;98601;-81
2022/03/25 00:54:27;;;;;;;71.28;29.65;;;;;;;1.62;67.06;101648.84;3679302;80;98982;-80
2022/03/25 00:59:29;;;;;;;59.70;27.87;;;;;;;1.56;66.91;101653.54;3670841;78;98894;-81
2022/03/25 01:04:30;;;;;;;74.20;35.05;;;;;;;1.48;67.08;101650.08;3670385;79;98925;-81
2022/03/25 01:09:31;;;;;;;65.83;31.93;;;;;;;1.47;66.76;101648.47;3678327;78;98852;-82
2022/03/25 01:14:33;;;;;;;68.63;31.83;;;;;;;1.44;67.45;101647.70;3678904;78;99032;-81
2022/03/25 01:19:34;;;;;;;72.30;33.03;;;;;;;1.39;67.48;101643.69;3658043;78;98676;-80
2022/03/25 01:24:35;;;;;;;71.70;32.57;;;;;;;1.32;67.58;101643.75;3656971;78;98964;-80
2022/03/25 01:29:36;;;;;;;71.77;31.33;;;;;;;1.27;67.73;101648.66;3655277;78;98844;-80
2022/03/25 01:34:37;;;;;;;71.27;32.20;;;;;;;1.23;67.91;101647.64;3683806;79;98856;-80
2022/03/25 01:39:38;;;;;;;67.97;32.07;;;;;;;1.15;67.92;101644.17;3678306;78;98819;-79
2022/03/25 01:44:39;;;;;;;72.23;35.27;;;;;;;1.08;68.30;101638.27;3659374;79;98420;-80
2022/03/25 01:49:40;;;;;;;69.27;33.03;;;;;;;1.05;68.63;101634.77;3695233;77;98675;-80
2022/03/25 01:54:41;;;;;;;71.37;31.93;;;;;;;1.00;68.43;101635.38;3629808;80;99056;-80
2022/03/25 01:59:42;;;;;;;72.03;32.50;;;;;;;0.92;68.27;101636.78;3661882;77;98852;-81
2022/03/25 02:04:43;;;;;;;73.47;31.65;;;;;;;0.88;69.09;101636.30;3669083;80;99173;-81
2022/03/25 02:09:43;;;;;;;69.70;33.40;;;;;;;0.80;69.13;101645.83;3672526;78;98808;-81
2022/03/25 02:14:44;;;;;;;69.27;32.30;;;;;;;0.73;69.64;101644.53;3665863;79;98976;-81
2022/03/25 02:19:48;;;;;;;68.87;32.07;;;;;;;0.72;69.39;101651.05;3662419;77;98674;-80
2022/03/25 02:24:50;;;;;;;66.63;30.63;;;;;;;0.70;69.72;101647.26;3670038;80;99033;-80
2022/03/25 02:29:51;;;;;;;65.57;30.75;;;;;;;0.56;69.67;101643.55;3666219;80;98888;-81
2022/03/25 02:34:52;;;;;;;59.03;28.97;;;;;;;0.51;69.88;101646.85;3651928;80;98797;-81
2022/03/25 02:39:54;;;;;;;65.47;31.07;;;;;;;0.46;70.02;101649.59;3679653;78;98755;-80
2022/03/25 02:44:55;;;;;;;70.47;30.72;;;;;;;0.42;70.24;101660.17;3663084;78;98749;-80
2022/03/25 02:49:56;;;;;;;64.17;30.13;;;;;;;0.37;70.39;101656.67;3668638;78;98469;-81
2022/03/25 02:54:57;;;;;;;65.50;29.57;;;;;;;0.31;70.49;101659.15;3668866;78;98778;-80
2022/03/25 02:59:57;;;;;;;60.17;28.03;;;;;;;0.29;70.49;101666.75;3671931;78;98751;-80
2022/03/25 03:04:58;;;;;;;68.23;32.93;;;;;;;0.23;70.55;101660.54;3661175;78;98792;-80
2022/03/25 03:09:59;;;;;;;61.33;28.23;;;;;;;0.20;71.29;101660.29;3693005;78;98855;-80
2022/03/25 03:15:01;;;;;;;70.62;33.00;;;;;;;0.13;70.96;101675.47;3684392;79;98789;-80
2022/03/25 03:20:04;;;;;;;70.03;31.73;;;;;;;0.08;71.30;101667.41;3650213;78;98451;-81
2022/03/25 03:25:06;;;;;;;66.03;31.37;;;;;;;0.03;71.22;101661.19;3657797;78;98998;-79
2022/03/25 03:30:11;;;;;;;69.57;32.23;;;;;;;-0.02;71.67;101665.83;3689021;78;98790;-80
2022/03/25 03:35:14;;;;;;;61.75;28.60;;;;;;;-0.10;71.88;101667.99;3697519;78;98974;-79
2022/03/25 03:40:15;;;;;;;62.80;29.80;;;;;;;-0.12;71.82;101680.18;3676392;78;98935;-80
2022/03/25 03:45:17;;;;;;;64.13;30.10;;;;;;;-0.14;72.07;101666.12;3670459;79;98982;-80
2022/03/25 03:50:18;;;;;;;58.43;28.80;;;;;;;-0.17;72.24;101675.34;3702045;78;32396;-79
2022/03/25 03:55:19;;;;;;;66.57;29.70;;;;;;;-0.22;72.16;101675.62;3682277;78;98981;-78
2022/03/25 04:00:20;;;;;;;58.50;27.33;;;;;;;-0.23;72.51;101676.45;3656210;78;99014;-79
2022/03/25 04:05:21;;;;;;;57.37;26.93;;;;;;;-0.28;72.85;101669.70;3666724;78;99078;-79
2022/03/25 04:10:22;;;;;;;50.73;25.43;;;;;;;-0.31;72.86;101671.84;3687115;78;98935;-80
2022/03/25 04:15:23;;;;;;;53.83;25.27;;;;;;;-0.35;72.77;101664.56;3674195;79;99055;-79
2022/03/25 04:20:25;;;;;;;48.07;23.70;;;;;;;-0.39;73.41;101670.81;3678342;78;33610;-79
2022/03/25 04:25:26;;;;;;;53.17;26.13;;;;;;;-0.43;73.02;101665.67;3675579;79;99387;-80
2022/03/25 04:30:32;;;;;;;53.43;25.50;;;;;;;-0.47;73.65;101672.97;3700649;78;98995;-79
2022/03/25 04:35:33;;;;;;;47.20;23.90;;;;;;;-0.50;73.67;101675.97;3660505;80;99304;-79
2022/03/25 04:40:35;;;;;;;54.87;24.63;;;;;;;-0.55;73.87;101672.72;3674984;78;99271;-78
2022/03/25 04:45:36;;;;;;;52.55;24.40;;;;;;;-0.57;74.16;101683.00;3693173;80;99272;-79
2022/03/25 04:50:41;;;;;;;54.07;25.53;;;;;;;-0.59;74.33;101676.25;3689521;78;42476;-79
2022/03/25 04:55:42;;;;;;;48.52;22.77;;;;;;;-0.62;74.92;101678.95;3684026;79;99079;-79
2022/03/25 05:00:43;;;;;;;50.90;23.10;;;;;;;-0.63;75.30;101679.22;3672896;78;98920;-79
2022/03/25 05:05:44;;;;;;;52.00;24.27;;;;;;;-0.68;75.83;101685.45;3636242;79;99168;-79
2022/03/25 05:10:45;;;;;;;49.77;23.67;;;;;;;-0.69;76.14;101689.24;3640848;78;99156;-79
2022/03/25 05:15:47;;;;;;;54.03;24.10;;;;;;;-0.69;76.34;101689.24;3617876;80;99113;-79
2022/03/25 05:20:48;;;;;;;46.73;23.57;;;;;;;-0.67;76.42;101695.17;3632335;81;32667;-79
2022/03/25 05:25:49;;;;;;;53.80;24.23;;;;;;;-0.66;76.28;101693.30;3617400;80;99250;-79
2022/03/25 05:30:50;;;;;;;47.33;22.37;;;;;;;-0.60;76.75;101701.67;3625900;80;98930;-78
2022/03/25 05:35:51;;;;;;;48.63;23.23;;;;;;;-0.60;76.75;101701.67;3615480;80;99620;-78
2022/03/25 05:40:52;;;;;;;47.10;23.27;;;;;;;-0.56;77.19;101704.90;3636194;79;99178;-79
2022/03/25 05:45:53;;;;;;;58.13;24.90;;;;;;;-0.52;77.45;101706.52;3626686;79;99283;-79
2022/03/25 05:50:54;;;;;;;54.60;25.23;;;;;;;-0.47;76.89;101701.92;3635214;81;33038;-80
2022/03/25 05:55:55;;;;;;;55.80;26.87;;;;;;;-0.41;76.88;101700.83;3609862;80;99086;-78
2022/03/25 06:00:57;;;;;;;55.53;26.90;;;;;;;-0.33;76.98;101704.87;3629273;81;98944;-78
2022/03/25 06:06:03;;;;;;;58.70;27.42;;;;;;;-0.23;77.64;101702.94;3619858;81;99114;-79
2022/03/25 06:11:04;;;;;;;65.97;27.20;;;;;;;-0.11;77.91;101702.91;3673092;78;99060;-79
2022/03/25 06:16:05;;;;;;;61.60;27.95;;;;;;;0.02;78.43;101704.23;3687352;79;99336;-80
2022/03/25 06:21:06;;;;;;;55.73;26.85;;;;;;;0.18;78.62;101707.14;3695428;78;98866;-79
2022/03/25 06:26:07;;;;;;;56.50;28.27;;;;;;;0.39;78.90;101711.38;3694237;79;98967;-80
2022/03/25 06:31:08;;;;;;;63.30;29.50;;;;;;;0.57;78.73;101718.33;3699469;78;98580;-79
2022/03/25 06:36:13;;;;;;;63.27;30.63;;;;;;;0.81;79.08;101723.32;3666291;78;99023;-81
2022/03/25 06:41:12;;;;;;;63.57;30.07;;;;;;;1.07;78.61;101722.59;3666871;78;98821;-80
2022/03/25 06:46:16;;;;;;;64.53;30.53;;;;;;;1.33;79.05;101722.13;3684998;79;98890;-78
2022/03/25 06:51:18;;;;;;;50.30;24.63;;;;;;;1.75;78.18;101722.25;3695456;78;98816;-78
2022/03/25 06:56:20;;;;;;;48.23;21.57;;;;;;;2.23;77.02;101724.42;3694243;79;98501;-79
2022/03/25 07:01:21;;;;;;;44.30;23.38;;;;;;;2.54;76.09;101725.13;3693450;78;98699;-80
2022/03/25 07:06:24;;;;;;;53.50;27.90;;;;;;;2.77;74.96;101721.53;3685969;79;98860;-80
2022/03/25 07:11:26;;;;;;;43.50;21.52;;;;;;;2.95;74.79;101721.28;3683766;78;99242;-77
2022/03/25 07:16:27;;;;;;;59.60;26.03;;;;;;;3.26;73.95;101726.48;3677714;79;98824;-80
2022/03/25 07:21:29;;;;;;;48.58;24.43;;;;;;;3.59;72.73;101732.17;3686452;78;98907;-80
2022/03/25 07:26:31;;;;;;;50.67;24.12;;;;;;;3.84;72.07;101738.54;3695488;78;32912;-79
2022/03/25 07:31:32;;;;;;;49.23;24.50;;;;;;;4.16;72.07;101745.28;3693058;78;99018;-80
2022/03/25 07:36:33;;;;;;;52.43;25.23;;;;;;;4.45;71.62;101741.69;3690760;79;98610;-80
2022/03/25 07:41:35;;;;;;;47.10;23.30;;;;;;;4.79;70.82;101744.20;3679731;78;99384;-80
2022/03/25 07:46:35;;;;;;;54.83;24.40;;;;;;;5.10;70.54;101748.41;3670403;79;98812;-80
2022/03/25 07:51:36;;;;;;;45.17;23.30;;;;;;;5.40;69.92;101764.08;3691679;78;99264;-79
2022/03/25 07:56:38;;;;;;;47.50;22.73;;;;;;;5.73;69.24;101758.03;3697560;79;32529;-81
2022/03/25 08:01:39;;;;;;;45.37;21.53;;;;;;;6.06;68.56;101753.11;3683310;78;99084;-80
2022/03/25 08:06:40;;;;;;;41.30;18.63;;;;;;;6.44;67.55;101757.74;3688086;79;99224;-80
2022/03/25 08:11:41;;;;;;;38.73;19.90;;;;;;;6.79;66.27;101761.38;3660339;78;98807;-79
2022/03/25 08:16:44;;;;;;;36.65;19.02;;;;;;;7.17;65.18;101758.27;3698878;79;98779;-80
2022/03/25 08:21:45;;;;;;;46.00;21.10;;;;;;;7.51;64.63;101763.73;3664518;78;99211;-81
2022/03/25 08:32:06;;;;;;;44.25;22.60;;;;;;;8.30;62.45;101762.11;3666625;78;98980;-80
2022/03/25 08:37:07;;;;;;;48.78;22.87;;;;;;;8.70;63.03;101770.20;3679352;79;99108;-80
2022/03/25 08:42:08;;;;;;;44.93;25.00;;;;;;;9.09;62.81;101767.03;3678388;78;99205;-81
2022/03/25 08:47:10;;;;;;;45.33;26.40;;;;;;;9.47;62.82;101772.63;3686609;79;99417;-81
2022/03/25 08:52:12;;;;;;;60.90;27.83;;;;;;;9.91;62.09;101773.23;3690163;78;99273;-80
2022/03/25 08:57:13;;;;;;;52.30;26.50;;;;;;;10.50;61.91;101782.77;3687342;78;99373;-80
2022/03/25 09:02:14;;;;;;;48.55;26.07;;;;;;;11.14;60.47;101770.41;3685345;80;99598;-77
2022/03/25 09:07:15;;;;;;;56.88;28.27;;;;;;;11.64;59.12;101770.16;3691602;78;98932;-80
2022/03/25 09:12:16;;;;;;;50.43;27.80;;;;;;;12.30;59.09;101776.67;3613216;79;99602;-79
2022/03/25 09:17:17;;;;;;;51.63;29.23;;;;;;;12.90;58.37;101777.55;3636648;78;99083;-79
2022/03/25 09:22:18;;;;;;;56.80;30.10;;;;;;;13.53;56.22;101769.88;3627144;79;99684;-78
2022/03/25 09:27:19;;;;;;;62.73;34.53;;;;;;;13.96;54.36;101775.08;3641675;79;99139;-78
2022/03/25 09:32:21;;;;;;;53.00;31.70;;;;;;;14.48;53.91;101778.00;3616187;79;99383;-79
2022/03/25 09:37:22;;;;;;;58.60;33.18;;;;;;;15.21;54.46;101774.97;3638850;79;99385;-79
2022/03/25 09:42:23;;;;;;;57.03;33.95;;;;;;;15.89;53.59;101771.88;3620864;79;99382;-79
2022/03/25 09:47:24;;;;;;;57.45;33.90;;;;;;;16.93;52.97;101765.66;3644017;79;99169;-79
2022/03/25 09:52:29;;;;;;;55.92;32.15;;;;;;;17.88;51.05;101762.16;3627794;79;99220;-78
2022/03/25 09:57:31;;;;;;;50.88;32.58;;;;;;;18.46;48.93;101771.62;3641251;80;99209;-79
2022/03/25 10:02:33;;;;;;;59.35;33.02;;;;;;;18.94;47.90;101771.39;3643053;78;98960;-79
2022/03/25 10:07:34;;;;;;;49.33;31.33;;;;;;;19.63;46.43;101757.82;3631604;79;99040;-79
2022/03/25 10:12:38;;;;;;;50.67;30.82;;;;;;;19.85;45.18;101756.54;3655234;79;99099;-79
2022/03/25 10:17:59;;;;;;;45.85;29.07;;;;;;;20.06;43.60;101741.01;3681676;77;99131;-79
2022/03/25 10:23:17;;;;;;;44.15;28.25;;;;;;;20.39;42.61;101751.58;3682853;78;99037;-79
2022/03/25 10:28:31;;;;;;;50.20;29.98;;;;;;;20.90;42.71;101746.55;3649227;78;99599;-79
2022/03/25 10:33:36;;;;;;;47.83;28.52;;;;;;;21.39;41.01;101738.39;3676869;77;99244;-79
2022/03/25 10:39:01;;;;;;;47.65;29.65;;;;;;;21.43;39.61;101741.95;3698346;78;34865;-79
2022/03/25 10:44:03;;;;;;;44.25;27.40;;;;;;;21.43;39.49;101739.75;3650786;77;99264;-79
2022/03/25 10:49:17;;;;;;;47.62;28.77;;;;;;;21.43;37.74;101734.95;3653519;78;99054;-78
2022/03/25 10:54:25;;;;;;;41.83;25.45;;;;;;;21.46;38.12;101729.89;3694124;79;99196;-79
2022/03/25 10:59:35;;;;;;;45.03;27.05;;;;;;;21.48;36.88;101735.86;3690549;78;99804;-79
2022/03/25 11:04:36;;;;;;;26.93;15.40;;;;;;;21.55;36.99;101735.79;3672281;77;99396;-78
2022/03/25 11:09:37;;;;;;;30.72;19.50;;;;;;;21.59;35.65;101730.91;3677348;78;99125;-78
2022/03/25 11:14:39;;;;;;;35.73;18.23;;;;;;;21.94;36.02;101725.45;3668239;79;99365;-79
2022/03/25 11:19:40;;;;;;;35.73;21.00;;;;;;;21.82;35.21;101723.23;3674294;78;99137;-78
2022/03/25 11:24:48;;;;;;;34.38;18.67;;;;;;;21.79;35.45;101719.89;3673722;78;99153;-79
2022/03/25 11:29:53;;;;;;;33.15;17.32;;;;;;;21.53;35.34;101725.59;3661189;78;99192;-78
2022/03/25 11:35:00;;;;;;;28.57;17.73;;;;;;;21.33;35.65;101719.06;3649912;79;99204;-80
2022/03/25 11:40:25;;;;;;;49.40;18.92;;;;;;;21.43;36.20;101704.73;3685386;78;99238;-78
2022/03/25 11:45:33;;;;;;;32.78;18.65;;;;;;;21.37;35.69;101702.21;3668669;78;99132;-79
2022/03/25 11:50:38;;;;;;;30.00;16.70;;;;;;;21.15;35.43;101698.87;3672490;78;34852;-78
2022/03/25 11:55:59;;;;;;;33.10;20.27;;;;;;;21.14;36.00;101698.69;3685181;79;99062;-77
2022/03/25 12:01:17;;;;;;;36.80;20.27;;;;;;;20.85;36.58;101693.79;3681487;78;99049;-78
2022/03/25 12:06:28;;;;;;;40.17;23.25;;;;;;;20.74;36.33;101685.52;3667924;79;98720;-78
2022/03/25 12:11:53;;;;;;;36.13;21.45;;;;;;;20.67;36.12;101692.60;3665426;78;99212;-79
2022/03/25 12:16:56;;;;;;;32.93;20.88;;;;;;;20.52;36.62;101676.35;3668942;79;99093;-78
2022/03/25 12:22:19;;;;;;;33.80;21.70;;;;;;;20.44;36.70;101674.84;3648488;78;99419;-77
2022/03/25 12:27:21;;;;;;;34.37;21.23;;;;;;;20.28;36.95;101668.38;3688478;80;105445;-77
2022/03/25 12:32:30;;;;;;;36.98;22.25;;;;;;;20.06;36.87;101655.76;3667715;78;99435;-78
2022/03/25 12:38:04;;;;;;;30.50;18.45;;;;;;;20.05;36.84;101648.58;3677990;78;99050;-77
2022/03/25 12:43:11;;;;;;;28.23;16.97;;;;;;;19.80;37.47;101648.00;3687860;79;99464;-78
2022/03/25 12:48:23;;;;;;;27.30;16.23;;;;;;;19.31;37.96;101629.35;3673414;78;99334;-77
2022/03/25 12:53:27;;;;;;;30.10;17.00;;;;;;;19.57;38.44;101631.59;3666918;78;99352;-82
2022/03/25 12:58:28;;;;;;;30.32;17.35;;;;;;;19.41;38.65;101618.73;3702374;78;99129;-78
2022/03/25 13:03:34;;;;;;;31.60;14.85;;;;;;;19.43;38.61;101620.50;3669742;79;99299;-80
2022/03/25 13:08:35;;;;;;;24.10;13.03;;;;;;;19.30;38.90;101615.20;3677264;78;35946;-80
2022/03/25 13:13:40;;;;;;;22.98;12.90;;;;;;;19.01;39.61;101615.13;3656391;79;99151;-80
2022/03/25 13:18:41;;;;;;;27.10;13.87;;;;;;;18.89;40.33;101613.58;3668110;78;98996;-81
2022/03/25 13:23:42;;;;;;;25.02;13.13;;;;;;;18.86;39.70;101608.80;3648878;80;99482;-79
2022/03/25 13:28:45;;;;;;;25.92;12.88;;;;;;;18.69;40.30;101610.27;3673066;78;99206;-79
2022/03/25 13:33:51;;;;;;;27.45;14.85;;;;;;;18.47;40.35;101600.38;3683552;79;99372;-79
2022/03/25 13:38:52;;;;;;;;;;;;;;;18.31;40.92;101602.77;3706270;78;26477;-81
2022/03/25 13:43:58;;;;;;;28.62;14.07;;;;;;;18.20;41.12;101597.81;3672361;78;85223;-79
2022/03/25 13:49:05;;;;;;;32.65;14.53;;;;;;;18.10;41.50;101604.19;3679212;78;99008;-79
2022/03/25 13:54:15;;;;;;;27.52;11.93;;;;;;;17.89;41.83;101594.44;3653853;79;99271;-81
2022/03/25 13:59:43;;;;;;;26.57;13.15;;;;;;;17.89;42.60;101595.25;3690331;78;99142;-81
2022/03/25 14:04:44;;;;;;;21.60;12.58;;;;;;;18.03;42.42;101582.69;3655717;79;99167;-80
2022/03/25 14:09:54;;;;;;;25.57;13.62;;;;;;;18.00;42.28;101577.13;3667822;78;99100;-79
2022/03/25 14:15:08;;;;;;;27.42;13.65;;;;;;;17.95;42.05;101581.12;3653087;79;98822;-78
2022/03/25 14:20:18;;;;;;;26.07;14.28;;;;;;;17.82;42.38;101587.49;3660047;78;99109;-78
2022/03/25 14:25:22;;;;;;;26.68;14.63;;;;;;;17.74;42.93;101576.13;3664040;79;99213;-80
2022/03/25 14:30:23;;;;;;;21.75;12.93;;;;;;;17.51;43.13;101558.45;3670864;78;99225;-79
2022/03/25 14:35:28;;;;;;;23.95;13.88;;;;;;;17.48;43.26;101565.37;3669353;79;99277;-78
2022/03/25 14:40:31;;;;;;;27.95;13.43;;;;;;;17.45;43.19;101562.78;3677340;78;99222;-81
2022/03/25 14:45:33;;;;;;;25.57;13.08;;;;;;;17.50;43.46;101559.61;3628655;80;99234;-79
2022/03/25 14:50:34;;;;;;;34.92;14.30;;;;;;;17.47;43.12;101545.70;3680117;78;35404;-79
2022/03/25 14:55:37;;;;;;;26.93;14.03;;;;;;;17.46;43.16;101537.16;3672617;78;99172;-80
2022/03/25 15:00:38;;;;;;;24.87;13.10;;;;;;;17.39;43.27;101539.33;3667123;78;98951;-81
2022/03/25 15:05:41;;;;;;;26.30;12.98;;;;;;;17.37;43.43;101533.92;3662596;80;99246;-81
2022/03/25 15:10:42;;;;;;;27.77;13.65;;;;;;;17.23;43.32;101539.48;3664456;78;99636;-81
2022/03/25 15:15:45;;;;;;;27.70;15.32;;;;;;;17.09;43.66;101531.10;3670002;80;99273;-82
2022/03/25 15:20:46;;;;;;;27.75;13.50;;;;;;;17.08;43.67;101519.78;3671079;78;34817;-81
2022/03/25 15:25:47;;;;;;;29.27;14.78;;;;;;;17.02;43.60;101521.36;3678885;78;99509;-81
2022/03/25 15:36:08;;;;;;;28.17;13.13;;;;;;;16.77;44.48;101514.92;3673089;80;99549;-80
2022/03/25 15:41:09;;;;;;;21.62;13.45;;;;;;;16.63;44.97;101513.50;3675010;78;99194;-80
2022/03/25 15:46:12;;;;;;;25.43;13.97;;;;;;;16.51;45.28;101511.08;3676534;78;99198;-81
2022/03/25 15:51:13;;;;;;;24.95;13.55;;;;;;;16.37;45.26;101510.97;3674974;78;99184;-80
2022/03/25 15:56:15;;;;;;;26.77;14.50;;;;;;;16.22;45.32;101503.73;3668209;79;99007;-80
2022/03/25 16:01:16;;;;;;;27.40;15.38;;;;;;;16.11;45.69;101505.66;3686327;78;99038;-80
2022/03/25 16:06:17;;;;;;;31.52;16.12;;;;;;;15.94;45.85;101497.45;3659429;78;99336;-79
2022/03/25 16:11:21;;;;;;;29.95;14.03;;;;;;;15.85;46.26;101500.34;3670022;78;99232;-79
2022/03/25 16:16:21;;;;;;;25.30;14.30;;;;;;;15.70;46.91;101492.51;3681564;79;99124;-80
2022/03/25 16:21:22;;;;;;;26.47;14.57;;;;;;;15.55;47.20;101497.77;3666856;78;99299;-79
2022/03/25 16:26:24;;;;;;;31.00;18.03;;;;;;;15.46;47.66;101506.19;3692411;78;99266;-79
2022/03/25 16:31:27;;;;;;;25.12;14.78;;;;;;;15.32;47.85;101501.89;3672606;78;99089;-79
2022/03/25 16:36:30;;;;;;;29.20;14.43;;;;;;;15.18;48.08;101501.75;3673053;79;99350;-79
2022/03/25 16:41:31;;;;;;;28.85;15.63;;;;;;;15.06;48.56;101502.84;3688451;78;99217;-79
2022/03/25 16:46:33;;;;;;;32.13;16.00;;;;;;;14.92;48.66;101504.65;3617573;78;99111;-80
2022/03/25 16:51:36;;;;;;;30.82;16.00;;;;;;;14.73;48.73;101502.89;3672709;78;99267;-79
2022/03/25 16:56:37;;;;;;;33.50;17.00;;;;;;;14.60;49.46;101502.92;3691928;80;34853;-80
2022/03/25 17:01:40;;;;;;;34.40;19.13;;;;;;;14.45;49.70;101501.75;3680350;78;100248;-79
2022/03/25 17:06:41;;;;;;;30.75;18.27;;;;;;;14.32;50.04;101507.30;3671732;78;99083;-80
2022/03/25 17:11:42;;;;;;;27.33;15.57;;;;;;;14.12;50.79;101509.38;3659190;78;99566;-79
2022/03/25 17:16:45;;;;;;;39.97;22.47;;;;;;;13.94;51.64;101506.14;3692744;78;99152;-80
2022/03/25 17:21:48;;;;;;;66.70;37.35;;;;;;;13.76;51.70;101512.82;3682082;78;99584;-79
2022/03/25 17:26:50;;;;;;;45.20;25.25;;;;;;;13.55;52.51;101504.19;3693166;79;35119;-80
2022/03/25 17:31:51;;;;;;;37.85;21.62;;;;;;;13.35;53.37;101515.70;3673215;78;99412;-80
2022/03/25 17:36:52;;;;;;;48.02;26.40;;;;;;;13.18;54.14;101510.64;3683975;79;98959;-79
2022/03/25 17:41:53;;;;;;;43.87;24.40;;;;;;;12.98;54.41;101508.50;3653875;78;99358;-81
2022/03/25 17:46:55;;;;;;;40.33;24.70;;;;;;;12.79;54.79;101519.58;3692072;79;99562;-80
2022/03/25 17:51:56;;;;;;;51.30;27.50;;;;;;;12.57;55.28;101527.22;3682115;78;99573;-80
2022/03/25 17:56:58;;;;;;;54.30;27.97;;;;;;;12.41;55.87;101524.30;3702602;79;30038;-81
2022/03/25 18:02:02;;;;;;;62.33;30.70;;;;;;;12.08;56.17;101510.17;3663672;78;99099;-81
2022/03/25 18:07:04;;;;;;;59.25;25.48;;;;;;;11.95;56.61;101524.66;3657104;80;98986;-79
2022/03/25 18:12:07;;;;;;;75.08;30.12;;;;;;;11.76;57.25;101523.81;3680110;77;99388;-81
2022/03/25 18:17:08;;;;;;;85.80;34.03;;;;;;;11.50;57.71;101518.05;3675171;79;98364;-80
2022/03/25 18:22:10;;;;;;;87.53;35.57;;;;;;;11.36;58.04;101525.95;3678532;78;99524;-81
2022/03/25 18:27:13;;;;;;;69.27;31.27;;;;;;;11.18;58.46;101528.25;3688620;80;99133;-80
2022/03/25 18:32:14;;;;;;;63.08;30.00;;;;;;;10.97;58.87;101535.16;3675452;78;99130;-80
2022/03/25 18:42:11;;;;;;;53.40;27.60;;;;;;;10.68;59.76;101536.33;3753193;76;25702;-80
2022/03/25 18:47:14;;;;;;;59.58;29.70;;;;;;;10.50;60.21;101539.72;3585003;81;99234;-81
2022/03/25 18:52:15;;;;;;;47.95;28.00;;;;;;;10.32;60.56;101548.05;3558898;81;99417;-80
2022/03/25 18:57:16;;;;;;;52.30;26.20;;;;;;;10.17;60.86;101548.20;3628703;80;99588;-81
2022/03/25 19:02:23;;;;;;;47.50;25.67;;;;;;;10.02;61.09;101550.25;3598578;80;99641;-80
2022/03/25 19:07:23;;;;;;;52.25;24.75;;;;;;;9.84;61.76;101554.95;3622333;80;98842;-80
2022/03/25 19:16:43;;;;;;;50.77;25.13;;;;;;;9.62;62.86;101565.04;3662107;77;25685;-80
2022/03/25 19:21:44;;;;;;;44.85;23.98;;;;;;;9.41;62.70;101561.02;3632914;80;105902;-80
2022/03/25 19:26:50;;;;;;;48.50;24.83;;;;;;;9.26;63.35;101567.77;3494763;83;25780;-78
2022/03/25 19:31:53;;;;;;;50.35;25.27;;;;;;;9.13;63.54;101568.30;3544481;81;99057;-78
2022/03/25 19:36:55;;;;;;;50.70;27.50;;;;;;;9.01;63.81;101571.58;3627951;80;98708;-78
2022/03/25 19:41:57;;;;;;;45.67;25.23;;;;;;;8.88;64.45;101570.72;3596280;80;98824;-80
2022/03/25 19:46:59;;;;;;;54.80;27.93;;;;;;;8.78;64.74;101573.09;3525318;81;98991;-81
2022/03/25 19:52:01;;;;;;;49.40;27.07;;;;;;;8.66;64.73;101569.72;3554947;82;98900;-80
2022/03/25 19:57:03;;;;;;;55.15;28.90;;;;;;;8.55;65.03;101573.20;3561101;82;31702;-80
2022/03/25 20:02:04;;;;;;;51.33;26.60;;;;;;;8.43;65.31;101572.59;3626292;80;99097;-79
2022/03/25 20:07:06;;;;;;;59.23;30.90;;;;;;;8.30;65.48;101581.86;3516775;80;98758;-81
2022/03/25 20:12:12;;;;;;;60.00;28.65;;;;;;;8.15;66.00;101574.22;3514393;81;99046;-80
2022/03/25 20:17:14;;;;;;;59.33;29.70;;;;;;;8.00;66.38;101574.80;3514469;83;98918;-80
2022/03/25 20:22:17;;;;;;;62.08;30.65;;;;;;;7.90;66.71;101583.98;3469458;82;98971;-81
2022/03/25 20:27:22;;;;;;;63.43;31.03;;;;;;;7.78;66.75;101572.89;3474379;84;98939;-81
2022/03/25 20:32:23;;;;;;;66.40;32.85;;;;;;;7.61;67.31;101575.17;3473096;83;99087;-81
2022/03/25 20:37:24;;;;;;;74.73;34.37;;;;;;;7.51;67.62;101582.92;3468027;83;98754;-80
2022/03/25 20:42:28;;;;;;;82.63;39.97;;;;;;;7.44;67.90;101587.56;3516072;82;99053;-80
2022/03/25 20:47:29;;;;;;;79.03;39.35;;;;;;;7.39;68.22;101583.64;3551055;82;98879;-82
2022/03/25 20:52:35;;;;;;;65.97;33.87;;;;;;;7.31;68.17;101586.41;3557482;81;99136;-79
2022/03/25 20:57:37;;;;;;;65.72;34.92;;;;;;;7.19;68.19;101585.70;3601253;81;98711;-80
2022/03/25 21:02:38;;;;;;;59.25;32.53;;;;;;;7.10;68.92;101589.02;3579711;80;99567;-81
2022/03/25 21:07:40;;;;;;;65.03;33.80;;;;;;;6.99;69.46;101593.22;3602103;80;98692;-85
2022/03/25 21:12:40;;;;;;;71.00;33.03;;;;;;;6.93;69.83;101600.00;3591874;81;98849;-81
2022/03/25 21:17:41;;;;;;;71.83;34.37;;;;;;;6.86;69.62;101593.41;3646298;80;98813;-81
2022/03/25 21:22:42;;;;;;;58.13;31.03;;;;;;;6.77;69.95;101589.31;3621919;80;99308;-81
2022/03/25 21:27:43;;;;;;;64.13;32.30;;;;;;;6.68;70.10;101592.64;3648001;80;98876;-81
2022/03/25 21:32:44;;;;;;;68.22;33.42;;;;;;;6.59;70.42;101586.91;3631370;80;98929;-82
2022/03/25 21:37:46;;;;;;;64.20;33.00;;;;;;;6.52;70.70;101583.86;3619841;80;98757;-81
2022/03/25 21:42:49;;;;;;;68.57;34.33;;;;;;;6.38;70.83;101582.64;3630736;80;99030;-80
2022/03/25 21:47:50;;;;;;;69.90;36.97;;;;;;;6.25;71.56;101580.06;3657588;80;98790;-81
2022/03/25 21:52:51;;;;;;;64.27;33.67;;;;;;;6.12;71.66;101585.91;3675522;79;99047;-79
2022/03/25 21:57:53;;;;;;;74.87;36.63;;;;;;;6.01;72.07;101582.45;3684453;79;98858;-81
2022/03/25 22:02:54;;;;;;;70.10;35.00;;;;;;;5.97;72.29;101582.83;3681644;79;98686;-82
2022/03/25 22:07:55;;;;;;;68.03;35.27;;;;;;;5.88;72.17;101577.34;3683812;78;98692;-82
2022/03/25 22:12:57;;;;;;;66.43;37.23;;;;;;;5.83;72.43;101582.17;3672132;79;98598;-82
2022/03/25 22:17:59;;;;;;;61.92;34.48;;;;;;;5.73;72.56;101576.37;3655197;80;99117;-82
2022/03/25 22:23:00;;;;;;;61.33;32.75;;;;;;;5.65;72.88;101576.36;3647710;80;99065;-82
2022/03/25 22:28:01;;;;;;;60.53;31.67;;;;;;;5.55;72.90;101571.99;3661037;80;98953;-82
2022/03/25 22:33:02;;;;;;;56.37;29.97;;;;;;;5.51;73.18;101571.58;3647189;80;99090;-82
2022/03/25 22:38:04;;;;;;;65.10;31.83;;;;;;;5.45;73.14;101567.39;3645416;80;98474;-82
2022/03/25 22:43:06;;;;;;;57.73;30.60;;;;;;;5.33;73.59;101572.06;3638140;79;99179;-83
2022/03/25 22:48:08;;;;;;;57.53;29.23;;;;;;;5.28;73.84;101569.46;3651231;79;99296;-82
2022/03/25 22:53:09;;;;;;;52.53;28.50;;;;;;;5.20;73.93;101565.33;3652672;80;98874;-82
2022/03/25 22:58:10;;;;;;;52.50;25.70;;;;;;;5.11;74.34;101574.02;3662608;80;98881;-82
2022/03/25 23:03:12;;;;;;;54.53;28.20;;;;;;;5.08;74.57;101572.72;3653786;80;99169;-82
2022/03/25 23:08:13;;;;;;;49.17;27.03;;;;;;;5.03;74.38;101562.52;3661340;80;34988;-83
2022/03/25 23:13:14;;;;;;;49.80;25.63;;;;;;;4.98;74.51;101568.91;3645097;80;99110;-82
2022/03/25 23:18:15;;;;;;;45.10;23.40;;;;;;;4.94;74.64;101557.55;3651890;80;99156;-82
2022/03/25 23:23:16;;;;;;;50.33;27.83;;;;;;;4.89;74.87;101560.41;3612438;80;98855;-83